createdAt,value
2022-08-05T00:00:16.152Z,3.00
2022-08-05T00:02:50.725Z,3.00
2022-08-05T00:06:02.958Z,3.10
2022-08-05T00:08:33.006Z,3.00
2022-08-05T00:11:00.962Z,2.93
2022-08-05T00:13:39.389Z,2.80
2022-08-05T00:16:10.928Z,3.10
2022-08-05T00:18:40.904Z,2.93
2022-08-05T00:21:10.014Z,2.70
2022-08-05T00:23:46.614Z,2.83
2022-08-05T00:26:22.943Z,3.17
2022-08-05T00:28:51.003Z,2.90
2022-08-05T00:31:54.420Z,3.20
2022-08-05T00:34:53.546Z,3.67
2022-08-05T00:37:11.094Z,3.40
2022-08-05T00:39:44.372Z,3.67
2022-08-05T00:42:37.911Z,3.23
2022-08-05T00:45:12.029Z,3.47
2022-08-05T00:47:53.009Z,2.60
2022-08-05T00:50:26.512Z,3.60
2022-08-05T00:52:55.266Z,3.30
2022-08-05T00:55:34.091Z,3.57
2022-08-05T00:58:11.524Z,3.87
2022-08-05T01:00:39.627Z,4.00
2022-08-05T01:03:22.383Z,3.40
2022-08-05T01:05:51.240Z,3.30
2022-08-05T01:08:39.141Z,3.77
2022-08-05T01:11:13.896Z,3.50
2022-08-05T01:13:58.511Z,3.20
2022-08-05T01:16:57.056Z,3.10
2022-08-05T01:19:46.225Z,3.60
2022-08-05T01:22:35.331Z,3.23
2022-08-05T01:25:08.458Z,3.77
2022-08-05T01:27:55.856Z,3.30
2022-08-05T01:30:33.495Z,3.30
2022-08-05T01:33:08.231Z,3.80
2022-08-05T01:35:50.584Z,3.70
2022-08-05T01:38:26.885Z,3.60
2022-08-05T01:40:57.353Z,3.30
2022-08-05T01:43:26.562Z,4.23
2022-08-05T01:45:57.716Z,3.83
2022-08-05T01:48:27.231Z,3.70
2022-08-05T01:51:00.094Z,4.33
2022-08-05T01:53:57.200Z,4.50
2022-08-05T01:58:13.577Z,4.03
2022-08-05T01:59:24.642Z,4.07
2022-08-05T02:01:56.676Z,3.97
2022-08-05T02:04:28.743Z,4.30
2022-08-05T02:06:58.091Z,4.20
2022-08-05T02:09:25.379Z,3.63
2022-08-05T02:12:03.406Z,3.73
2022-08-05T02:14:38.609Z,3.97
2022-08-05T02:18:31.687Z,3.50
2022-08-05T02:20:22.914Z,3.43
2022-08-05T02:22:58.903Z,3.80
2022-08-05T02:25:33.249Z,3.80
2022-08-05T02:28:02.455Z,3.50
2022-08-05T02:30:54.113Z,3.60
2022-08-05T02:33:24.416Z,3.53
2022-08-05T02:36:09.482Z,3.90
2022-08-05T02:38:37.768Z,3.30
2022-08-05T02:41:17.156Z,3.37
2022-08-05T02:44:06.137Z,3.63
2022-08-05T02:46:36.578Z,3.50
2022-08-05T02:49:22.007Z,3.60
2022-08-05T02:52:04.465Z,4.00
2022-08-05T02:54:36.465Z,3.67
2022-08-05T02:58:09.950Z,3.30
2022-08-05T02:59:57.884Z,3.10
2022-08-05T03:02:36.887Z,3.43
2022-08-05T03:05:05.105Z,3.30
2022-08-05T03:08:00.893Z,3.10
2022-08-05T03:10:22.095Z,4.00
2022-08-05T03:12:53.981Z,2.90
2022-08-05T03:15:23.377Z,3.30
2022-08-05T03:17:55.497Z,3.20
2022-08-05T03:20:24.351Z,3.17
2022-08-05T03:22:52.276Z,3.23
2022-08-05T03:26:03.612Z,3.57
2022-08-05T03:28:11.160Z,3.27
2022-08-05T03:30:41.300Z,3.57
2022-08-05T03:33:09.416Z,3.20
2022-08-05T03:35:41.005Z,3.03
2022-08-05T03:38:15.149Z,3.00
2022-08-05T03:40:45.132Z,3.10
2022-08-05T03:44:08.996Z,3.47
2022-08-05T03:46:08.288Z,3.50
2022-08-05T03:48:37.844Z,3.50
2022-08-05T03:52:37.213Z,3.40
2022-08-05T03:55:34.662Z,3.37
2022-08-05T03:57:41.571Z,3.30
2022-08-05T04:00:15.679Z,3.33
2022-08-05T04:02:58.345Z,3.00
2022-08-05T04:05:33.681Z,3.77
2022-08-05T04:08:30.396Z,3.73
2022-08-05T04:10:58.107Z,3.40
2022-08-05T04:13:27.755Z,3.50
2022-08-05T04:16:14.427Z,3.50
2022-08-05T04:18:41.380Z,2.90
2022-08-05T04:21:10.965Z,3.07
2022-08-05T04:24:05.782Z,3.00
2022-08-05T04:26:32.318Z,3.20
2022-08-05T04:29:07.459Z,3.30
2022-08-05T04:31:38.417Z,3.13
2022-08-05T04:34:19.047Z,2.90
2022-08-05T04:36:54.869Z,3.80
2022-08-05T04:39:21.978Z,3.63
2022-08-05T04:41:51.240Z,3.10
2022-08-05T04:44:28.992Z,2.90
2022-08-05T04:46:59.590Z,3.67
2022-08-05T04:49:38.807Z,3.13
2022-08-05T04:52:14.825Z,3.30
2022-08-05T04:54:44.396Z,3.40
2022-08-05T04:57:11.320Z,3.50
2022-08-05T04:59:40.624Z,2.80
2022-08-05T05:02:41.562Z,3.10
2022-08-05T05:05:01.694Z,3.27
2022-08-05T05:07:32.098Z,2.93
2022-08-05T05:10:05.352Z,3.17
2022-08-05T05:12:36.712Z,3.23
2022-08-05T05:15:04.800Z,3.43
2022-08-05T05:17:56.791Z,3.20
2022-08-05T05:20:28.385Z,3.10
2022-08-05T05:22:58.814Z,3.10
2022-08-05T05:25:37.226Z,2.80
2022-08-05T05:28:08.811Z,2.90
2022-08-05T05:30:36.445Z,3.00
2022-08-05T05:33:15.935Z,3.43
2022-08-05T05:35:45.561Z,2.90
2022-08-05T05:38:14.281Z,2.87
2022-08-05T05:40:49.989Z,3.23
2022-08-05T05:43:27.803Z,6.50
2022-08-05T05:46:13.671Z,5.17
2022-08-05T05:48:43.977Z,3.00
2022-08-05T05:51:15.751Z,4.30
2022-08-05T05:53:46.118Z,3.70
2022-08-05T05:56:26.212Z,3.63
2022-08-05T05:59:03.209Z,3.23
2022-08-05T06:01:39.378Z,2.97
2022-08-05T06:04:14.552Z,3.47
2022-08-05T06:06:48.691Z,3.33
2022-08-05T06:09:26.623Z,2.87
2022-08-05T06:12:05.520Z,3.10
2022-08-05T06:14:33.343Z,3.30
2022-08-05T06:17:52.376Z,4.07
2022-08-05T06:19:56.796Z,4.67
2022-08-05T06:22:35.653Z,3.30
2022-08-05T06:25:58.976Z,2.87
2022-08-05T06:28:12.713Z,2.83
2022-08-05T06:30:41.929Z,2.70
2022-08-05T06:33:19.097Z,3.00
2022-08-05T06:36:07.703Z,2.67
2022-08-05T06:38:36.715Z,2.47
2022-08-05T06:41:08.397Z,2.40
2022-08-05T06:43:57.902Z,2.40
2022-08-05T06:46:29.841Z,2.80
2022-08-05T06:48:59.227Z,2.27
2022-08-05T06:51:29.481Z,2.40
2022-08-05T06:54:02.086Z,2.47
2022-08-05T06:56:29.829Z,2.03
2022-08-05T06:58:58.927Z,2.20
2022-08-05T07:01:27.668Z,2.20
2022-08-05T07:03:59.083Z,2.00
2022-08-05T07:06:28.664Z,2.70
2022-08-05T07:08:55.652Z,1.80
2022-08-05T07:11:25.214Z,2.10
2022-08-05T07:14:20.287Z,2.00
2022-08-05T07:18:08.176Z,1.90
2022-08-05T07:22:28.812Z,2.93
2022-08-05T07:25:22.920Z,1.80
2022-08-05T07:27:58.421Z,2.20
2022-08-05T07:30:34.283Z,1.83
2022-08-05T07:33:09.607Z,1.73
2022-08-05T07:36:04.200Z,1.97
2022-08-05T07:38:33.532Z,1.67
2022-08-05T07:42:08.032Z,2.03
2022-08-05T07:44:05.324Z,2.40
2022-08-05T07:46:33.822Z,1.80
2022-08-05T07:49:05.823Z,1.80
2022-08-05T07:51:40.305Z,1.80
2022-08-05T07:54:10.074Z,1.83
2022-08-05T07:57:00.441Z,2.33
2022-08-05T07:59:38.674Z,1.73
2022-08-05T08:02:16.985Z,1.90
2022-08-05T08:04:49.461Z,1.97
2022-08-05T08:07:21.968Z,1.70
2022-08-05T08:09:52.015Z,1.93
2022-08-05T08:12:37.171Z,2.90
2022-08-05T08:15:13.831Z,2.43
2022-08-05T08:17:46.050Z,2.17
2022-08-05T08:20:44.087Z,2.40
2022-08-05T08:23:07.578Z,1.50
2022-08-05T08:26:00.329Z,1.70
2022-08-05T08:28:37.086Z,2.20
2022-08-05T08:31:24.897Z,1.80
2022-08-05T08:33:56.333Z,1.90
2022-08-05T08:36:38.538Z,2.07
2022-08-05T08:39:15.093Z,2.23
2022-08-05T08:41:52.639Z,1.93
2022-08-05T08:45:24.938Z,1.67
2022-08-05T08:48:05.564Z,1.90
2022-08-05T08:50:30.132Z,1.80
2022-08-05T08:53:12.131Z,1.63
2022-08-05T08:56:02.813Z,1.73
2022-08-05T08:58:43.910Z,1.77
2022-08-05T09:01:16.818Z,1.70
2022-08-05T09:03:47.560Z,1.80
2022-08-05T09:06:21.046Z,1.67
2022-08-05T09:08:53.055Z,1.80
2022-08-05T09:11:51.980Z,1.63
2022-08-05T09:14:58.531Z,1.70
2022-08-05T09:17:00.895Z,2.23
2022-08-05T09:19:36.622Z,1.77
2022-08-05T09:22:22.593Z,1.63
2022-08-05T09:25:14.073Z,2.17
2022-08-05T09:28:03.847Z,2.10
2022-08-05T09:30:34.982Z,2.20
2022-08-05T09:33:02.956Z,2.40
2022-08-05T09:35:32.077Z,1.93
2022-08-05T09:38:16.648Z,1.80
2022-08-05T09:40:52.302Z,1.73
2022-08-05T09:43:41.238Z,1.80
2022-08-05T09:46:33.079Z,1.60
2022-08-05T09:49:19.200Z,1.50
2022-08-05T09:51:50.401Z,1.70
2022-08-05T09:54:30.638Z,2.10
2022-08-05T09:57:01.208Z,1.77
2022-08-05T09:59:28.873Z,1.93
2022-08-05T10:02:02.321Z,1.90
2022-08-05T10:04:38.402Z,1.97
2022-08-05T10:07:20.202Z,1.60
2022-08-05T10:10:15.197Z,1.80
2022-08-05T10:12:49.437Z,1.50
2022-08-05T10:15:24.298Z,1.63
2022-08-05T10:18:20.346Z,1.70
2022-08-05T10:20:55.935Z,1.60
2022-08-05T10:23:59.297Z,2.10
2022-08-05T10:26:33.933Z,1.77
2022-08-05T10:29:03.473Z,2.53
2022-08-05T10:32:52.206Z,1.80
2022-08-05T10:34:19.414Z,1.63
2022-08-05T10:36:52.959Z,2.00
2022-08-05T10:40:03.097Z,2.97
2022-08-05T10:42:22.680Z,1.80
2022-08-05T10:44:51.453Z,2.30
2022-08-05T10:47:25.883Z,2.20
2022-08-05T10:50:20.661Z,1.87
2022-08-05T10:53:00.254Z,2.10
2022-08-05T10:55:27.764Z,1.60
2022-08-05T10:58:08.909Z,1.90
2022-08-05T11:00:42.178Z,1.63
2022-08-05T11:03:25.979Z,1.77
2022-08-05T11:06:15.813Z,1.80
2022-08-05T11:09:32.124Z,1.73
2022-08-05T11:12:42.275Z,2.10
2022-08-05T11:15:21.351Z,1.80
2022-08-05T11:18:06.130Z,1.57
2022-08-05T11:20:45.239Z,1.70
2022-08-05T11:24:05.688Z,1.43
2022-08-05T11:26:37.490Z,1.50
2022-08-05T11:29:12.915Z,1.60
2022-08-05T11:31:56.361Z,1.80
2022-08-05T11:34:38.027Z,1.67
2022-08-05T11:37:55.141Z,1.67
2022-08-05T11:40:00.844Z,1.50
2022-08-05T11:42:37.889Z,1.70
2022-08-05T11:45:14.242Z,1.57
2022-08-05T11:47:55.353Z,1.47
2022-08-05T11:50:22.879Z,1.67
2022-08-05T11:52:53.222Z,1.20
2022-08-05T11:55:32.164Z,1.60
2022-08-05T11:58:10.454Z,1.63
2022-08-05T12:00:44.207Z,1.80
2022-08-05T12:03:23.752Z,2.17
2022-08-05T12:06:02.602Z,1.63
2022-08-05T12:08:31.444Z,2.10
2022-08-05T12:11:04.109Z,1.90
2022-08-05T12:13:48.703Z,1.77
2022-08-05T12:16:19.257Z,1.50
2022-08-05T12:18:52.356Z,1.87
2022-08-05T12:21:29.798Z,1.40
2022-08-05T12:24:09.426Z,2.13
2022-08-05T12:26:44.349Z,1.63
2022-08-05T12:29:24.648Z,2.17
2022-08-05T12:31:57.213Z,1.87
2022-08-05T12:34:28.543Z,2.10
2022-08-05T12:37:29.737Z,2.10
2022-08-05T12:40:10.488Z,1.90
2022-08-05T12:42:39.316Z,1.97
2022-08-05T12:45:10.045Z,1.50
2022-08-05T12:47:37.871Z,1.60
2022-08-05T12:50:16.340Z,1.80
2022-08-05T12:52:53.813Z,2.55
2022-08-05T12:55:32.584Z,1.42
2022-08-05T12:58:50.807Z,1.45
2022-08-05T13:02:02.595Z,0.98
2022-08-05T13:03:42.448Z,1.38
2022-08-05T13:06:15.913Z,1.13
2022-08-05T13:08:50.805Z,1.20
2022-08-05T13:11:57.945Z,1.33
2022-08-05T13:14:25.046Z,1.45
2022-08-05T13:17:31.630Z,1.23
2022-08-05T13:20:17.264Z,1.40
2022-08-05T13:22:49.995Z,1.57
2022-08-05T13:25:22.158Z,1.63
2022-08-05T13:28:07.994Z,1.60
2022-08-05T13:30:38.994Z,1.80
2022-08-05T13:33:06.131Z,1.60
2022-08-05T13:35:47.138Z,1.43
2022-08-05T13:38:30.448Z,1.20
2022-08-05T13:40:59.783Z,1.27
2022-08-05T13:43:44.396Z,1.50
2022-08-05T13:46:35.670Z,1.17
2022-08-05T13:49:10.366Z,1.20
2022-08-05T13:51:40.971Z,1.20
2022-08-05T13:54:13.636Z,0.90
2022-08-05T13:56:50.377Z,1.17
2022-08-05T13:59:24.134Z,1.52
2022-08-05T14:01:58.616Z,1.30
2022-08-05T14:05:00.568Z,1.30
2022-08-05T14:07:59.920Z,1.50
2022-08-05T14:10:28.477Z,1.03
2022-08-05T14:12:57.136Z,1.40
2022-08-05T14:16:04.342Z,1.73
2022-08-05T14:18:14.998Z,1.73
2022-08-05T14:20:54.518Z,1.67
2022-08-05T14:23:25.026Z,2.00
2022-08-05T14:25:57.872Z,1.40
2022-08-05T14:28:31.209Z,1.67
2022-08-05T14:30:59.295Z,1.87
2022-08-05T14:33:27.364Z,1.57
2022-08-05T14:36:03.568Z,1.87
2022-08-05T14:38:35.961Z,1.70
2022-08-05T14:41:05.851Z,2.07
2022-08-05T14:44:02.059Z,1.83
2022-08-05T14:46:28.410Z,1.80
2022-08-05T14:48:57.892Z,2.00
2022-08-05T14:51:30.649Z,2.13
2022-08-05T14:54:26.565Z,2.00
2022-08-05T14:56:50.989Z,2.47
2022-08-05T14:59:21.801Z,2.13
2022-08-05T15:01:51.669Z,2.40
2022-08-05T15:04:22.388Z,2.00
2022-08-05T15:06:52.998Z,1.93
2022-08-05T15:09:51.597Z,2.60
2022-08-05T15:12:09.507Z,3.27
2022-08-05T15:14:42.257Z,2.43
2022-08-05T15:17:45.633Z,2.37
2022-08-05T15:20:04.154Z,2.80
2022-08-05T15:22:33.510Z,2.87
2022-08-05T15:25:00.538Z,2.40
2022-08-05T15:27:52.508Z,2.40
2022-08-05T15:30:21.698Z,2.30
2022-08-05T15:32:49.322Z,2.30
2022-08-05T15:35:18.352Z,3.07
2022-08-05T15:38:08.734Z,2.70
2022-08-05T15:41:02.880Z,2.60
2022-08-05T15:43:25.148Z,3.17
2022-08-05T15:46:00.818Z,2.60
2022-08-05T15:48:31.162Z,2.60
2022-08-05T15:51:01.594Z,2.43
2022-08-05T15:53:38.354Z,2.60
2022-08-05T15:56:17.527Z,2.80
2022-08-05T15:58:44.917Z,2.50
2022-08-05T16:01:17.089Z,3.30
2022-08-05T16:03:51.054Z,2.70
2022-08-05T16:06:20.386Z,2.50
2022-08-05T16:08:53.599Z,2.47
2022-08-05T16:11:43.079Z,3.07
2022-08-05T16:14:17.195Z,2.80
2022-08-05T16:16:44.789Z,2.83
2022-08-05T16:19:25.538Z,3.00
2022-08-05T16:22:03.297Z,3.20
2022-08-05T16:24:41.612Z,2.57
2022-08-05T16:27:18.317Z,3.00
2022-08-05T16:29:50.813Z,2.33
2022-08-05T16:32:28.509Z,2.87
2022-08-05T16:34:59.971Z,2.70
2022-08-05T16:38:02.322Z,3.20
2022-08-05T16:40:28.649Z,3.30
2022-08-05T16:42:56.811Z,3.53
2022-08-05T16:46:04.607Z,3.13
2022-08-05T16:48:10.931Z,3.67
2022-08-05T16:50:54.998Z,3.37
2022-08-05T16:53:32.343Z,2.60
2022-08-05T16:56:09.961Z,3.30
2022-08-05T16:58:39.010Z,2.60
2022-08-05T17:01:06.637Z,2.90
2022-08-05T17:03:37.812Z,2.60
2022-08-05T17:06:10.761Z,2.47
2022-08-05T17:08:52.247Z,2.43
2022-08-05T17:11:25.532Z,1.73
2022-08-05T17:14:00.379Z,2.10
2022-08-05T17:16:37.692Z,2.33
2022-08-05T17:19:10.826Z,1.87
2022-08-05T17:21:39.704Z,1.77
2022-08-05T17:24:28.197Z,2.73
2022-08-05T17:26:58.334Z,1.77
2022-08-05T17:29:33.410Z,1.70
2022-08-05T17:32:11.355Z,1.60
2022-08-05T17:34:43.742Z,1.47
2022-08-05T17:37:16.896Z,1.60
2022-08-05T17:39:59.879Z,0.80
2022-08-05T17:42:31.936Z,1.07
2022-08-05T17:45:17.931Z,0.80
2022-08-05T17:47:53.022Z,0.87
2022-08-05T17:50:28.459Z,1.00
2022-08-05T17:53:01.554Z,1.70
2022-08-05T17:55:37.399Z,0.97
2022-08-05T17:58:07.187Z,0.90
2022-08-05T18:00:39.919Z,0.80
2022-08-05T18:06:07.208Z,1.07
2022-08-05T18:08:44.265Z,1.03
2022-08-05T18:11:23.684Z,1.00
2022-08-05T18:13:59.985Z,0.90
2022-08-05T18:16:29.418Z,0.80
2022-08-05T18:18:57.309Z,1.00
2022-08-05T18:21:26.269Z,1.00
2022-08-05T18:23:54.980Z,0.80
2022-08-05T18:26:29.552Z,1.10
2022-08-05T18:28:59.607Z,1.17
2022-08-05T18:31:32.867Z,0.90
2022-08-05T18:34:03.653Z,0.70
2022-08-05T18:36:36.113Z,1.00
2022-08-05T18:39:06.537Z,0.80
2022-08-05T18:42:01.171Z,0.70
2022-08-05T18:44:35.151Z,1.10
2022-08-05T18:47:03.799Z,0.90
2022-08-05T18:49:57.959Z,0.90
2022-08-05T18:52:33.664Z,0.90
2022-08-05T18:55:10.759Z,1.20
2022-08-05T18:57:43.506Z,0.80
2022-08-05T19:00:19.992Z,0.87
2022-08-05T19:02:47.955Z,0.80
2022-08-05T19:06:12.599Z,1.10
2022-08-05T19:08:02.885Z,0.90
2022-08-05T19:10:30.563Z,0.83
2022-08-05T19:12:57.613Z,0.83
2022-08-05T19:15:57.059Z,1.10
2022-08-05T19:18:21.789Z,0.90
2022-08-05T19:20:52.229Z,1.07
2022-08-05T19:24:04.500Z,1.20
2022-08-05T19:26:09.578Z,1.33
2022-08-05T19:28:43.228Z,1.20
2022-08-05T19:31:13.435Z,1.10
2022-08-05T19:33:48.446Z,1.47
2022-08-05T19:36:25.377Z,1.40
2022-08-05T19:38:58.929Z,1.37
2022-08-05T19:42:05.565Z,1.23
2022-08-05T19:44:23.507Z,1.57
2022-08-05T19:46:58.384Z,1.37
2022-08-05T19:49:28.003Z,1.27
2022-08-05T19:52:09.202Z,1.10
2022-08-05T19:54:42.151Z,1.17
2022-08-05T19:57:10.089Z,1.67
2022-08-05T20:00:00.713Z,1.10
2022-08-05T20:02:27.721Z,1.30
2022-08-05T20:04:59.014Z,1.20
2022-08-05T20:07:46.175Z,1.40
2022-08-05T20:10:15.242Z,1.30
2022-08-05T20:12:47.943Z,1.60
2022-08-05T20:15:49.001Z,1.10
2022-08-05T20:18:32.327Z,1.30
2022-08-05T20:20:56.980Z,0.97
2022-08-05T20:23:39.552Z,1.20
2022-08-05T20:26:17.369Z,1.20
2022-08-05T20:28:50.455Z,1.50
2022-08-05T20:31:21.838Z,1.10
2022-08-05T20:33:55.145Z,1.03
2022-08-05T20:36:25.942Z,1.67
2022-08-05T20:38:53.404Z,1.10
2022-08-05T20:41:27.095Z,1.20
2022-08-05T20:44:00.454Z,1.20
2022-08-05T20:46:31.382Z,1.60
2022-08-05T20:49:02.552Z,1.47
2022-08-05T20:51:37.985Z,1.00
2022-08-05T20:54:05.297Z,1.83
2022-08-05T20:56:42.517Z,1.80
2022-08-05T20:59:19.052Z,1.70
2022-08-05T21:01:47.199Z,1.73
2022-08-05T21:04:18.668Z,1.53
2022-08-05T21:06:48.004Z,1.47
2022-08-05T21:09:15.848Z,1.60
2022-08-05T21:12:09.372Z,1.80
2022-08-05T21:14:35.463Z,1.53
2022-08-05T21:17:06.832Z,1.80
2022-08-05T21:19:46.864Z,1.20
2022-08-05T21:22:21.940Z,1.53
2022-08-05T21:24:54.492Z,1.50
2022-08-05T21:27:24.944Z,1.40
2022-08-05T21:29:56.284Z,1.57
2022-08-05T21:32:27.757Z,1.40
2022-08-05T21:35:08.896Z,1.60
2022-08-05T21:37:47.334Z,1.40
2022-08-05T21:40:22.008Z,1.27
2022-08-05T21:42:51.926Z,1.13
2022-08-05T21:45:24.967Z,1.80
2022-08-05T21:48:06.566Z,1.50
2022-08-05T21:50:36.595Z,1.30
2022-08-05T21:53:16.327Z,1.43
2022-08-05T21:56:04.733Z,1.17
2022-08-05T21:58:34.314Z,1.43
2022-08-05T22:01:07.283Z,1.77
2022-08-05T22:03:52.035Z,1.60
2022-08-05T22:06:22.755Z,2.03
2022-08-05T22:08:52.099Z,1.73
2022-08-05T22:11:34.674Z,1.67
2022-08-05T22:14:05.559Z,1.50
2022-08-05T22:16:51.328Z,1.70
2022-08-05T22:20:01.317Z,1.67
2022-08-05T22:22:08.908Z,1.90
2022-08-05T22:24:55.815Z,1.60
2022-08-05T22:28:08.827Z,1.50
2022-08-05T22:30:32.463Z,1.60
2022-08-05T22:33:03.125Z,1.80
2022-08-05T22:35:38.551Z,1.93
2022-08-05T22:38:15.346Z,1.80
2022-08-05T22:40:42.301Z,1.30
2022-08-05T22:43:36.955Z,2.23
2022-08-05T22:46:09.241Z,1.80
2022-08-05T22:48:41.404Z,2.07
2022-08-05T22:51:15.999Z,1.60
2022-08-05T22:53:55.085Z,2.37
2022-08-05T22:56:30.733Z,1.93
2022-08-05T22:59:02.963Z,1.70
2022-08-05T23:01:50.793Z,1.50
2022-08-05T23:04:18.447Z,1.63
2022-08-05T23:06:47.865Z,1.60
2022-08-05T23:09:27.829Z,1.33
2022-08-05T23:12:02.170Z,1.50
2022-08-05T23:14:31.809Z,1.73
2022-08-05T23:17:24.232Z,1.50
2022-08-05T23:20:01.111Z,1.30
2022-08-05T23:22:29.737Z,1.50
2022-08-05T23:24:58.207Z,1.50
2022-08-05T23:27:31.395Z,0.90
2022-08-05T23:30:10.745Z,1.50
2022-08-05T23:32:37.829Z,1.10
2022-08-05T23:35:12.420Z,1.17
2022-08-05T23:37:39.281Z,1.13
2022-08-05T23:40:11.647Z,1.13
2022-08-05T23:42:41.289Z,0.93
2022-08-05T23:45:15.721Z,1.20
2022-08-05T23:47:47.562Z,1.13
2022-08-05T23:50:14.938Z,1.20
2022-08-05T23:52:50.145Z,0.93
2022-08-05T23:55:19.169Z,0.90
2022-08-05T23:57:48.900Z,1.13
